Time;durP1;ratioP1;P1;durP2;ratioP2;P2;SDS_P1;SDS_P2;PMS_P1;PMS_P2;Temp;Humidity;BMP_temperature;BMP_pressure;BME280_temperature;BME280_humidity;BME280_pressure;Samples;Min_cycle;Max_cycle;Signal;HPM_P1;HPM_P2
2022/04/15 00:01:47;;;;;;;31.50;20.25;;;;;;;8.09;88.02;102396.41;5041583;28;20045;-64
2022/04/15 00:04:13;;;;;;;32.72;20.90;;;;;;;8.05;88.47;102406.00;5040851;28;20040;-64
2022/04/15 00:06:38;;;;;;;32.13;20.55;;;;;;;8.01;88.47;102400.03;5042562;28;20068;-64
2022/04/15 00:09:04;;;;;;;34.55;21.55;;;;;;;8.02;88.51;102406.38;5042226;28;20029;-64
2022/04/15 00:11:31;;;;;;;35.65;21.58;;;;;;;8.01;88.75;102402.78;5040660;28;20079;-63
2022/04/15 00:13:56;;;;;;;33.85;21.92;;;;;;;7.99;88.56;102398.50;5039695;28;20369;-64
2022/04/15 00:16:21;;;;;;;35.03;22.00;;;;;;;8.01;88.73;102396.44;5055847;28;20029;-64
2022/04/15 00:18:47;;;;;;;30.70;19.58;;;;;;;7.92;88.13;102394.75;5045792;28;20104;-64
2022/04/15 00:21:12;;;;;;;31.25;18.00;;;;;;;7.82;88.41;102394.09;5040936;28;20086;-64
2022/04/15 00:23:38;;;;;;;29.42;18.38;;;;;;;7.77;88.45;102400.94;5040573;28;20740;-64
2022/04/15 00:26:04;;;;;;;29.90;18.15;;;;;;;7.74;89.10;102401.28;5040405;28;20495;-64
2022/04/15 00:28:31;;;;;;;27.08;17.27;;;;;;;7.70;89.25;102408.13;5040612;28;20115;-63
2022/04/15 00:30:57;;;;;;;24.75;15.52;;;;;;;7.69;89.81;102403.69;5041946;28;20024;-64
2022/04/15 00:33:22;;;;;;;22.33;15.32;;;;;;;7.69;90.18;102408.31;5040022;28;20021;-63
2022/04/15 00:35:48;;;;;;;22.83;15.77;;;;;;;7.62;89.53;102407.31;5041473;28;20092;-64
2022/04/15 00:38:13;;;;;;;25.05;16.58;;;;;;;7.53;89.61;102420.97;5041793;28;20055;-63
2022/04/15 00:40:38;;;;;;;28.83;15.88;;;;;;;7.50;89.58;102409.50;5039644;28;20100;-64
2022/04/15 00:43:04;;;;;;;27.08;17.20;;;;;;;7.48;89.54;102422.50;5041089;28;20025;-64
2022/04/15 00:45:29;;;;;;;33.03;21.77;;;;;;;7.44;89.96;102419.25;5022249;28;20052;-64
2022/04/15 00:47:56;;;;;;;36.22;22.30;;;;;;;7.40;90.23;102419.78;5043651;28;20025;-64
2022/04/15 00:50:31;;;;;;;40.22;23.30;;;;;;;7.42;90.36;102424.06;5044649;28;20044;-64
2022/04/15 00:52:58;;;;;;;34.03;22.20;;;;;;;7.46;90.31;102435.50;5044503;28;20064;-64
2022/04/15 00:55:24;;;;;;;38.57;22.43;;;;;;;7.43;89.95;102427.66;5044672;28;20128;-63
2022/04/15 00:57:52;;;;;;;39.17;22.90;;;;;;;7.45;90.26;102428.31;5043781;28;20303;-64
2022/04/15 01:00:20;;;;;;;38.90;23.88;;;;;;;7.48;90.56;102427.97;5043030;28;20082;-64
2022/04/15 01:02:46;;;;;;;39.97;24.10;;;;;;;7.47;90.20;102431.75;5046440;28;20036;-64
2022/04/15 01:05:12;;;;;;;41.13;23.92;;;;;;;7.46;89.87;102430.03;5044770;28;20021;-64
2022/04/15 01:07:46;;;;;;;40.03;24.38;;;;;;;7.42;89.95;102423.22;5045262;28;20063;-63
2022/04/15 01:10:12;;;;;;;34.78;20.48;;;;;;;7.39;89.59;102435.31;5043469;28;20397;-63
2022/04/15 01:12:40;;;;;;;41.70;23.60;;;;;;;7.33;90.17;102441.47;5026997;28;20116;-63
2022/04/15 01:15:08;;;;;;;43.00;24.70;;;;;;;7.34;90.31;102445.06;5043587;28;20035;-63
2022/04/15 01:17:34;;;;;;;44.25;25.83;;;;;;;7.35;90.57;102436.72;5043246;28;20033;-64
2022/04/15 01:20:00;;;;;;;45.88;25.63;;;;;;;7.33;90.35;102435.16;5046625;28;20037;-64
2022/04/15 01:22:31;;;;;;;45.42;28.08;;;;;;;7.35;90.94;102438.56;5043724;28;20746;-64
2022/04/15 01:24:56;;;;;;;43.55;25.85;;;;;;;7.38;90.72;102435.50;5043225;28;20108;-64
2022/04/15 01:27:33;;;;;;;49.72;27.15;;;;;;;7.42;90.45;102439.59;5044804;28;20112;-64
2022/04/15 01:29:58;;;;;;;45.40;25.42;;;;;;;7.40;90.07;102436.16;5044606;28;20059;-64
2022/04/15 01:32:23;;;;;;;35.30;20.48;;;;;;;7.31;89.37;102440.81;5044007;28;20024;-64
2022/04/15 01:34:49;;;;;;;28.90;17.10;;;;;;;7.19;89.12;102444.88;5061459;28;20028;-64
2022/04/15 01:37:16;;;;;;;33.97;20.80;;;;;;;7.12;89.84;102443.84;5041535;28;20036;-64
2022/04/15 01:39:43;;;;;;;31.37;19.50;;;;;;;7.06;90.23;102450.84;5044164;28;20047;-64
2022/04/15 01:42:15;;;;;;;31.75;19.67;;;;;;;7.03;90.81;102443.84;5042997;28;20715;-63
2022/04/15 01:44:41;;;;;;;32.08;20.42;;;;;;;7.01;90.62;102447.78;5042178;28;20032;-64
2022/04/15 01:47:07;;;;;;;31.00;18.38;;;;;;;6.96;90.56;102450.16;5043342;28;20032;-64
2022/04/15 01:49:32;;;;;;;28.67;18.17;;;;;;;6.93;90.19;102451.31;5044125;28;20095;-64
2022/04/15 01:51:58;;;;;;;29.45;17.55;;;;;;;6.92;89.93;102454.22;5042798;28;20606;-64
2022/04/15 01:54:23;;;;;;;25.38;17.65;;;;;;;6.88;90.36;102452.84;5043749;28;20423;-64
2022/04/15 01:56:49;;;;;;;25.02;17.00;;;;;;;6.83;90.83;102457.97;5043576;28;20048;-64
2022/04/15 01:59:14;;;;;;;29.48;17.17;;;;;;;6.80;90.82;102461.03;5042177;28;20037;-64
2022/04/15 02:01:39;;;;;;;26.27;16.58;;;;;;;6.74;90.65;102457.97;5025992;28;20033;-65
2022/04/15 02:04:04;;;;;;;33.25;20.65;;;;;;;6.73;90.88;102458.09;5043452;28;20463;-64
2022/04/15 02:06:30;;;;;;;33.50;19.95;;;;;;;6.71;90.99;102463.75;5042291;28;20029;-64
2022/04/15 02:08:55;;;;;;;34.72;21.25;;;;;;;6.69;91.27;102463.06;5042367;28;20052;-64
2022/04/15 02:11:20;;;;;;;37.10;22.65;;;;;;;6.72;91.38;102464.59;5043132;28;20037;-63
2022/04/15 02:13:45;;;;;;;36.85;21.83;;;;;;;6.69;91.40;102468.53;5043300;28;20037;-64
2022/04/15 02:16:11;;;;;;;40.28;23.67;;;;;;;6.72;91.49;102470.91;5042350;28;20090;-63
2022/04/15 02:18:36;;;;;;;38.90;23.20;;;;;;;6.68;91.02;102472.25;5042980;28;20028;-63
2022/04/15 02:21:02;;;;;;;39.80;23.98;;;;;;;6.67;91.53;102477.88;5063477;28;20472;-63
2022/04/15 02:23:27;;;;;;;42.63;24.60;;;;;;;6.68;91.29;102472.25;5062976;28;20025;-63
2022/04/15 02:25:52;;;;;;;43.35;27.05;;;;;;;6.72;92.15;102473.63;5062829;28;20063;-64
2022/04/15 02:28:17;;;;;;;45.10;27.17;;;;;;;6.69;92.19;102481.28;5050123;28;20089;-64
2022/04/15 02:30:47;;;;;;;42.20;25.65;;;;;;;6.69;91.98;102484.03;5043029;28;20400;-64
2022/04/15 02:33:12;;;;;;;30.60;19.73;;;;;;;6.61;91.37;102484.84;5041814;28;20029;-63
2022/04/15 02:35:38;;;;;;;34.83;19.83;;;;;;;6.55;91.49;102485.53;5044095;28;20036;-63
2022/04/15 02:38:03;;;;;;;35.20;21.40;;;;;;;6.57;91.55;102486.19;5043621;28;20442;-64
2022/04/15 02:40:28;;;;;;;37.25;22.35;;;;;;;6.53;91.76;102482.09;5039908;28;20247;-64
2022/04/15 02:42:54;;;;;;;34.05;21.13;;;;;;;6.52;91.90;102490.44;5025475;28;20697;-64
2022/04/15 02:45:21;;;;;;;34.60;20.58;;;;;;;6.47;91.76;102489.06;5043277;28;20025;-64
2022/04/15 02:47:47;;;;;;;34.47;21.60;;;;;;;6.49;91.63;102488.91;5041736;28;20095;-64
2022/04/15 02:50:12;;;;;;;36.40;21.05;;;;;;;6.48;91.82;102490.75;5041772;28;20133;-64
2022/04/15 02:52:37;;;;;;;34.38;20.75;;;;;;;6.46;91.90;102486.50;5043866;28;20598;-63
2022/04/15 02:55:04;;;;;;;41.00;22.17;;;;;;;6.44;91.99;102488.56;5041426;28;20029;-63
2022/04/15 02:57:29;;;;;;;32.45;20.85;;;;;;;6.38;91.82;102490.03;5042455;28;20635;-64
2022/04/15 02:59:54;;;;;;;32.72;19.88;;;;;;;6.36;92.08;102491.22;5040069;28;20055;-63
2022/04/15 03:02:19;;;;;;;38.05;21.30;;;;;;;6.38;92.29;102489.19;5042916;28;20328;-63
2022/04/15 03:04:45;;;;;;;36.50;21.45;;;;;;;6.32;92.41;102487.97;5041758;28;20163;-64
2022/04/15 03:07:10;;;;;;;31.85;20.35;;;;;;;6.30;92.43;102491.88;5042007;28;20025;-65
2022/04/15 03:09:35;;;;;;;33.85;19.73;;;;;;;6.23;92.31;102481.63;5042800;28;20387;-63
2022/04/15 03:12:00;;;;;;;33.88;20.80;;;;;;;6.21;92.14;102478.19;5042368;28;20019;-63
2022/04/15 03:14:26;;;;;;;36.67;23.33;;;;;;;6.21;92.33;102486.38;5043170;28;20044;-63
2022/04/15 03:16:51;;;;;;;42.45;24.05;;;;;;;6.18;92.75;102485.81;5040016;28;20416;-63
2022/04/15 03:19:16;;;;;;;37.08;22.50;;;;;;;6.17;92.53;102492.31;5056887;28;20032;-63
2022/04/15 03:21:42;;;;;;;35.20;22.17;;;;;;;6.15;92.49;102495.19;5042656;28;20070;-64
2022/04/15 03:24:07;;;;;;;43.10;24.35;;;;;;;6.09;92.83;102492.28;5023858;28;20036;-63
2022/04/15 03:26:33;;;;;;;37.60;22.15;;;;;;;6.03;92.75;102498.34;5046632;28;20076;-63
2022/04/15 03:28:58;;;;;;;39.80;22.55;;;;;;;6.02;92.88;102497.50;5054875;28;20032;-64
2022/04/15 03:31:23;;;;;;;37.95;22.52;;;;;;;6.01;92.89;102501.25;5041811;28;20409;-63
2022/04/15 03:33:48;;;;;;;41.67;24.85;;;;;;;6.07;93.58;102497.88;5027493;28;20094;-64
2022/04/15 03:36:14;;;;;;;44.50;25.67;;;;;;;6.18;93.94;102502.19;5041359;28;20037;-63
2022/04/15 03:38:40;;;;;;;45.53;27.60;;;;;;;6.30;95.15;102505.53;5042197;28;20021;-65
2022/04/15 03:41:06;;;;;;;64.35;30.67;;;;;;;6.43;96.29;102505.91;5042145;28;20112;-63
2022/04/15 03:43:32;;;;;;;71.95;35.55;;;;;;;6.54;96.99;102505.66;5041085;28;20021;-63
2022/04/15 03:45:58;;;;;;;83.55;37.85;;;;;;;6.69;98.35;102506.75;5042427;28;20017;-64
2022/04/15 03:48:23;;;;;;;108.75;39.33;;;;;;;6.78;99.34;102509.50;5042356;28;20037;-63
2022/04/15 03:50:48;;;;;;;118.43;39.08;;;;;;;6.87;100.00;102505.78;5022642;28;20043;-63
2022/04/15 03:53:14;;;;;;;111.57;39.65;;;;;;;6.90;100.00;102510.91;5042224;28;20029;-63
2022/04/15 03:55:39;;;;;;;95.70;34.17;;;;;;;6.91;99.92;102515.34;5041023;28;20392;-64
2022/04/15 03:58:04;;;;;;;91.82;35.33;;;;;;;6.91;100.00;102518.09;5043383;28;20122;-63
2022/04/15 04:00:29;;;;;;;81.25;33.45;;;;;;;6.91;100.00;102518.09;5040744;28;20037;-63
2022/04/15 04:02:55;;;;;;;69.97;31.98;;;;;;;6.89;100.00;102522.84;5041029;28;20600;-63
2022/04/15 04:05:22;;;;;;;72.30;30.45;;;;;;;6.87;100.00;102527.63;5040850;28;20396;-64
2022/04/15 04:07:47;;;;;;;71.82;31.77;;;;;;;6.91;100.00;102529.88;5041469;28;20055;-63
2022/04/15 04:10:13;;;;;;;62.33;30.40;;;;;;;6.94;100.00;102528.66;5040820;28;20377;-63
2022/04/15 04:12:40;;;;;;;68.85;31.65;;;;;;;6.92;100.00;102536.19;5043248;28;20070;-63
2022/04/15 04:15:08;;;;;;;55.72;28.55;;;;;;;6.93;100.00;102535.16;5041135;28;20502;-63
2022/04/15 04:17:33;;;;;;;65.75;31.08;;;;;;;6.98;100.00;102536.34;5022807;28;20553;-63
2022/04/15 04:19:59;;;;;;;64.90;29.45;;;;;;;6.95;100.00;102539.44;5047996;28;20120;-64
2022/04/15 04:22:33;;;;;;;63.40;29.17;;;;;;;6.95;100.00;102539.44;5042756;28;20159;-63
2022/04/15 04:24:58;;;;;;;73.15;29.48;;;;;;;6.98;100.00;102535.50;5045266;28;20053;-63
2022/04/15 04:27:24;;;;;;;77.18;29.45;;;;;;;6.98;100.00;102540.97;5043341;28;20083;-63
2022/04/15 04:29:49;;;;;;;61.15;28.70;;;;;;;7.00;100.00;102537.06;5046661;28;20105;-64
2022/04/15 04:32:16;;;;;;;56.13;29.13;;;;;;;7.04;100.00;102548.50;5044172;28;20538;-63
2022/04/15 04:34:41;;;;;;;57.72;30.30;;;;;;;7.05;100.00;102546.66;5044915;28;20035;-64
2022/04/15 04:37:06;;;;;;;61.05;30.40;;;;;;;7.07;100.00;102552.78;5045982;28;20017;-63
2022/04/15 04:39:31;;;;;;;60.22;29.60;;;;;;;7.09;100.00;102548.84;5044052;28;20032;-63
2022/04/15 04:41:58;;;;;;;54.83;25.92;;;;;;;7.34;99.27;102555.25;5045230;28;20025;-64
2022/04/15 04:44:24;;;;;;;50.83;28.52;;;;;;;7.18;99.64;102552.47;5042439;28;20031;-63
2022/04/15 04:46:49;;;;;;;50.80;27.63;;;;;;;7.12;100.00;102551.25;5043609;28;20120;-63
2022/04/15 04:49:14;;;;;;;48.35;27.02;;;;;;;7.11;100.00;102563.22;5044630;28;20415;-64
2022/04/15 04:51:40;;;;;;;41.85;25.30;;;;;;;7.27;99.14;102562.41;5042682;28;20032;-64
2022/04/15 04:54:05;;;;;;;40.17;25.13;;;;;;;7.30;98.73;102564.81;5044288;28;20112;-63
2022/04/15 04:56:30;;;;;;;31.83;17.77;;;;;;;7.19;98.74;102560.50;5043979;28;20679;-63
2022/04/15 04:58:56;;;;;;;37.85;22.77;;;;;;;7.46;96.74;102566.72;5045294;28;20555;-63
2022/04/15 05:01:21;;;;;;;43.50;20.17;;;;;;;7.63;95.48;102568.47;5044458;28;20025;-63
2022/04/15 05:03:46;;;;;;;45.15;23.20;;;;;;;7.24;98.18;102574.50;5045568;28;20375;-63
2022/04/15 05:06:11;;;;;;;46.63;27.02;;;;;;;7.24;97.91;102584.59;5043524;28;20032;-63
2022/04/15 05:08:37;;;;;;;56.25;29.48;;;;;;;7.27;97.82;102578.81;5042127;28;20404;-64
2022/04/15 05:11:02;;;;;;;52.78;24.65;;;;;;;7.30;97.70;102586.69;5044294;28;20090;-63
2022/04/15 05:13:27;;;;;;;47.92;27.00;;;;;;;7.22;98.38;102592.13;5043715;28;20024;-63
2022/04/15 05:15:52;;;;;;;52.42;28.17;;;;;;;7.10;99.37;102588.84;5043767;28;20333;-63
2022/04/15 05:18:18;;;;;;;49.70;27.42;;;;;;;7.14;99.52;102590.19;5047049;28;20032;-63
2022/04/15 05:20:43;;;;;;;45.30;22.15;;;;;;;7.10;100.00;102591.56;5042790;28;20029;-63
2022/04/15 05:23:08;;;;;;;39.85;20.83;;;;;;;7.29;99.01;102593.16;5042802;28;20391;-65
2022/04/15 05:25:34;;;;;;;43.70;24.33;;;;;;;7.33;98.25;102604.63;5042873;28;20582;-63
2022/04/15 05:27:59;;;;;;;49.13;27.15;;;;;;;7.14;99.98;102606.59;5042307;28;20040;-63
2022/04/15 05:30:25;;;;;;;49.78;27.48;;;;;;;7.20;99.91;102611.41;5042543;28;20107;-63
2022/04/15 05:32:51;;;;;;;52.60;29.77;;;;;;;7.16;100.00;102612.75;5044263;28;20032;-64
2022/04/15 05:35:16;;;;;;;51.22;28.80;;;;;;;7.21;100.00;102609.53;5043364;28;20060;-64
2022/04/15 05:37:41;;;;;;;50.80;26.50;;;;;;;7.36;100.00;102620.69;5044738;28;20613;-64
2022/04/15 05:40:07;;;;;;;44.50;26.42;;;;;;;7.32;100.00;102622.03;5041724;28;20035;-63
2022/04/15 05:42:33;;;;;;;46.85;27.13;;;;;;;7.36;100.00;102623.44;5042803;28;20036;-63
2022/04/15 05:44:58;;;;;;;44.45;25.10;;;;;;;7.44;100.00;102617.97;5042412;28;20029;-63
2022/04/15 05:47:23;;;;;;;49.45;28.30;;;;;;;7.51;100.00;102622.63;5038227;28;20025;-63
2022/04/15 05:49:48;;;;;;;39.75;23.38;;;;;;;7.64;100.00;102624.00;5043347;28;20029;-64
2022/04/15 05:52:14;;;;;;;40.55;20.52;;;;;;;7.88;97.47;102632.25;5042410;28;20387;-64
2022/04/15 05:54:39;;;;;;;45.72;26.20;;;;;;;7.65;99.23;102636.63;5043067;28;20105;-64
2022/04/15 05:57:06;;;;;;;41.50;24.45;;;;;;;7.67;99.93;102648.28;5043534;28;20028;-63
2022/04/15 05:59:31;;;;;;;38.38;23.90;;;;;;;7.75;99.34;102649.13;5043413;28;20029;-63
2022/04/15 06:01:56;;;;;;;45.50;25.13;;;;;;;7.66;100.00;102650.16;5037241;28;20060;-63
2022/04/15 06:04:21;;;;;;;47.13;26.35;;;;;;;7.70;100.00;102650.66;5043913;28;20360;-63
2022/04/15 06:06:47;;;;;;;43.75;25.05;;;;;;;7.76;99.85;102647.28;5025005;28;20028;-63
2022/04/15 06:09:13;;;;;;;43.40;25.65;;;;;;;7.75;100.00;102654.59;5042519;28;20029;-64
2022/04/15 06:11:41;;;;;;;43.42;26.13;;;;;;;7.78;100.00;102659.75;5043825;28;20029;-64
2022/04/15 06:14:06;;;;;;;47.42;24.98;;;;;;;7.85;100.00;102661.81;5045157;28;20036;-64
2022/04/15 06:16:32;;;;;;;41.75;24.83;;;;;;;7.89;100.00;102660.47;5042755;28;20514;-63
2022/04/15 06:19:00;;;;;;;40.55;24.70;;;;;;;7.94;100.00;102666.28;5041624;28;20158;-64
2022/04/15 06:21:25;;;;;;;36.30;22.23;;;;;;;8.04;100.00;102670.56;5043240;28;20033;-64
2022/04/15 06:23:51;;;;;;;38.67;24.27;;;;;;;8.10;99.72;102670.91;5041817;28;20036;-64
2022/04/15 06:26:16;;;;;;;43.60;23.63;;;;;;;8.17;99.39;102670.06;5042627;28;20104;-63
2022/04/15 06:28:41;;;;;;;38.78;21.73;;;;;;;8.22;98.09;102664.94;5042964;28;20036;-64
2022/04/15 06:31:06;;;;;;;35.50;21.83;;;;;;;8.21;98.72;102671.47;5024821;28;20036;-64
2022/04/15 06:33:32;;;;;;;37.80;22.63;;;;;;;8.26;98.32;102671.78;5041664;28;20523;-64
2022/04/15 06:35:59;;;;;;;29.38;16.15;;;;;;;8.68;93.30;102670.75;5042204;28;20064;-63
2022/04/15 06:38:24;;;;;;;36.90;20.27;;;;;;;8.31;95.57;102676.72;5041091;28;20043;-64
2022/04/15 06:40:49;;;;;;;37.20;21.08;;;;;;;8.40;95.82;102681.22;5035566;28;20021;-64
2022/04/15 06:43:15;;;;;;;37.83;21.95;;;;;;;8.23;96.54;102684.97;5022658;28;20044;-64
2022/04/15 06:45:40;;;;;;;36.10;21.95;;;;;;;8.35;95.43;102685.47;5037309;28;20043;-65
2022/04/15 06:48:06;;;;;;;33.00;20.65;;;;;;;8.32;95.80;102690.28;5042676;28;20059;-64
2022/04/15 06:50:31;;;;;;;36.60;19.33;;;;;;;8.29;95.68;102696.06;5040248;28;20492;-64
2022/04/15 06:52:57;;;;;;;22.73;15.05;;;;;;;8.80;92.45;102699.50;5041612;28;20478;-64
2022/04/15 06:55:22;;;;;;;35.47;19.83;;;;;;;8.49;93.48;102695.78;5024537;28;20340;-64
2022/04/15 06:57:47;;;;;;;33.88;20.15;;;;;;;8.48;93.95;102699.53;5037787;28;20045;-64
2022/04/15 07:00:13;;;;;;;28.05;14.27;;;;;;;8.57;93.16;102701.25;5034339;28;20170;-64
2022/04/15 07:02:39;;;;;;;40.50;20.88;;;;;;;8.35;94.20;102708.22;5041014;28;20036;-64
2022/04/15 07:05:06;;;;;;;36.33;20.20;;;;;;;8.22;95.32;102706.00;5024626;28;20043;-64
2022/04/15 07:07:32;;;;;;;32.13;20.63;;;;;;;8.16;96.05;102706.69;5039945;28;20037;-64
2022/04/15 07:09:57;;;;;;;35.05;19.73;;;;;;;8.39;93.75;102711.50;5023452;28;20505;-64
2022/04/15 07:12:23;;;;;;;30.13;16.40;;;;;;;8.25;95.63;102704.78;5037134;28;20056;-64
2022/04/15 07:14:48;;;;;;;29.25;17.42;;;;;;;8.23;95.35;102706.84;5038897;28;20037;-63
2022/04/15 07:17:13;;;;;;;27.00;16.52;;;;;;;8.47;93.99;102698.69;5042031;28;20396;-64
2022/04/15 07:19:39;;;;;;;27.63;15.85;;;;;;;8.39;94.49;102706.88;5041493;28;20079;-63
2022/04/15 07:22:07;;;;;;;29.38;16.30;;;;;;;8.56;93.51;102713.22;5041464;28;20016;-63
2022/04/15 07:24:33;;;;;;;30.05;16.90;;;;;;;8.63;92.97;102719.75;5022065;28;20491;-63
2022/04/15 07:26:59;;;;;;;24.00;13.43;;;;;;;8.61;92.91;102713.56;5041500;28;20501;-63
2022/04/15 07:29:26;;;;;;;33.05;16.30;;;;;;;8.66;91.96;102719.38;5022950;28;20126;-63
2022/04/15 07:31:51;;;;;;;27.02;13.48;;;;;;;8.75;91.41;102718.34;5041225;28;20488;-63
2022/04/15 07:34:17;;;;;;;31.25;16.30;;;;;;;8.46;92.77;102727.06;5041890;28;20090;-64
2022/04/15 07:36:43;;;;;;;26.83;12.57;;;;;;;8.74;90.09;102727.59;5040357;28;20679;-64
2022/04/15 07:39:10;;;;;;;18.50;10.15;;;;;;;8.68;90.09;102722.81;5041428;28;20472;-64
2022/04/15 07:41:37;;;;;;;26.42;16.80;;;;;;;8.52;91.65;102722.81;5042165;28;20098;-64
2022/04/15 07:44:04;;;;;;;29.77;16.67;;;;;;;8.68;93.08;102727.44;5040874;28;20361;-64
2022/04/15 07:46:29;;;;;;;26.42;15.75;;;;;;;8.91;90.22;102725.69;5040828;28;21410;-64
2022/04/15 07:48:54;;;;;;;23.92;13.95;;;;;;;9.07;87.70;102722.94;5041613;28;20065;-64
2022/04/15 07:51:19;;;;;;;24.58;15.63;;;;;;;9.05;89.12;102722.22;5040258;28;20119;-64
2022/04/15 07:53:45;;;;;;;23.13;15.38;;;;;;;9.26;88.89;102715.31;5039364;28;20021;-64
2022/04/15 07:56:10;;;;;;;24.25;15.88;;;;;;;9.60;88.52;102726.00;5042883;28;20025;-65
2022/04/15 07:58:35;;;;;;;24.95;16.30;;;;;;;9.87;88.35;102719.16;5044977;28;20162;-64
2022/04/15 08:01:01;;;;;;;23.13;14.85;;;;;;;9.99;84.48;102728.72;5044939;28;20048;-64
2022/04/15 08:03:27;;;;;;;22.60;14.65;;;;;;;10.44;85.97;102732.56;5044880;28;20033;-64
2022/04/15 08:05:52;;;;;;;21.83;13.50;;;;;;;10.75;82.04;102732.47;5044686;28;20554;-64
2022/04/15 08:08:17;;;;;;;23.27;15.27;;;;;;;11.13;80.68;102724.16;5044086;28;20114;-64
2022/04/15 08:10:43;;;;;;;12.27;6.70;;;;;;;11.43;75.71;102722.28;5044750;28;20061;-65
2022/04/15 08:13:08;;;;;;;11.38;7.50;;;;;;;11.49;75.29;102720.66;5045286;28;20017;-64
2022/04/15 08:15:34;;;;;;;16.23;11.63;;;;;;;11.21;76.19;102724.09;5045251;28;20029;-64
2022/04/15 08:18:00;;;;;;;19.08;11.73;;;;;;;11.24;74.55;102726.44;5043819;28;20254;-64
2022/04/15 08:20:25;;;;;;;20.00;12.40;;;;;;;11.33;77.28;102722.56;5044165;28;20434;-64
2022/04/15 08:22:50;;;;;;;19.25;10.68;;;;;;;11.70;72.36;102720.72;5044357;28;20100;-64
2022/04/15 08:25:16;;;;;;;16.63;11.40;;;;;;;12.01;74.22;102727.91;5044157;28;20029;-64
2022/04/15 08:27:41;;;;;;;15.75;10.82;;;;;;;12.13;71.73;102727.22;5044266;28;20451;-64
2022/04/15 08:30:07;;;;;;;19.85;11.80;;;;;;;12.09;74.58;102722.28;5045166;28;20102;-64
2022/04/15 08:32:35;;;;;;;15.18;10.80;;;;;;;12.23;72.85;102724.13;5043973;28;20021;-64
2022/04/15 08:35:05;;;;;;;15.65;10.55;;;;;;;12.58;70.82;102721.50;5043951;28;20029;-64
2022/04/15 08:37:30;;;;;;;13.90;10.50;;;;;;;12.88;67.83;102717.53;5043418;28;20029;-64
2022/04/15 08:39:56;;;;;;;18.23;10.90;;;;;;;13.26;69.10;102724.59;5044072;28;20023;-64
2022/04/15 08:42:24;;;;;;;13.23;9.20;;;;;;;13.57;65.79;102711.19;5043397;28;20352;-64
2022/04/15 08:44:51;;;;;;;11.15;7.72;;;;;;;13.77;62.39;102720.41;5044354;28;20025;-64
2022/04/15 08:47:16;;;;;;;13.15;9.02;;;;;;;13.51;65.18;102731.31;5044573;28;20379;-64
2022/04/15 08:49:42;;;;;;;13.13;9.30;;;;;;;13.24;64.88;102739.47;5044511;28;20017;-65
2022/04/15 08:52:14;;;;;;;15.48;9.02;;;;;;;13.08;65.46;102738.91;5043928;28;20025;-65
2022/04/15 08:54:40;;;;;;;13.07;8.95;;;;;;;12.98;65.54;102740.09;5042689;28;20386;-65
2022/04/15 08:57:07;;;;;;;13.65;9.02;;;;;;;12.90;64.89;102737.47;5044481;28;20029;-64
2022/04/15 08:59:32;;;;;;;14.15;8.82;;;;;;;12.82;66.12;102745.88;5043392;28;20029;-64
2022/04/15 09:01:57;;;;;;;15.20;9.32;;;;;;;12.58;65.84;102751.84;5044087;28;20742;-64
2022/04/15 09:04:23;;;;;;;14.90;9.38;;;;;;;12.59;66.15;102748.88;5044518;28;20375;-65
2022/04/15 09:06:55;;;;;;;15.18;9.07;;;;;;;13.18;65.35;102750.44;5042725;28;20567;-64
2022/04/15 09:09:24;;;;;;;13.27;8.80;;;;;;;13.61;62.69;102745.59;5042824;28;20029;-64
2022/04/15 09:11:50;;;;;;;14.13;9.52;;;;;;;13.61;62.56;102747.53;5043504;28;20095;-65
2022/04/15 09:14:16;;;;;;;14.38;9.80;;;;;;;14.05;61.83;102747.09;5043371;28;20028;-64
2022/04/15 09:16:47;;;;;;;13.02;9.20;;;;;;;15.05;58.36;102748.06;5044108;28;20025;-64
2022/04/15 09:19:13;;;;;;;11.15;7.97;;;;;;;17.44;53.64;102744.81;5042905;28;20103;-65
2022/04/15 09:21:41;;;;;;;12.02;7.93;;;;;;;18.64;49.70;102746.84;5043059;28;20108;-64
2022/04/15 09:24:11;;;;;;;10.93;7.43;;;;;;;20.09;44.26;102750.84;5042922;28;20503;-64
2022/04/15 09:26:37;;;;;;;11.30;7.05;;;;;;;21.59;40.73;102752.00;5043653;28;20233;-64
2022/04/15 09:29:03;;;;;;;9.73;5.82;;;;;;;19.61;42.21;102755.66;5043941;28;20405;-65
2022/04/15 09:31:28;;;;;;;13.30;7.78;;;;;;;17.67;46.12;102760.78;5042936;28;20094;-64
2022/04/15 09:34:01;;;;;;;12.57;6.97;;;;;;;17.77;47.49;102758.34;5025607;28;20391;-65
2022/04/15 09:36:32;;;;;;;11.57;7.15;;;;;;;16.35;49.98;102771.09;5042200;28;20401;-64
2022/04/15 09:39:14;;;;;;;11.63;8.65;;;;;;;15.58;53.46;102770.97;5041988;28;20255;-64
2022/04/15 09:41:48;;;;;;;12.65;9.35;;;;;;;14.72;55.32;102776.59;5043408;28;20349;-65
2022/04/15 09:44:13;;;;;;;14.32;9.90;;;;;;;14.43;55.95;102777.78;5042698;28;20162;-65
2022/04/15 09:46:44;;;;;;;11.77;8.77;;;;;;;14.66;55.00;102776.59;5025451;28;20123;-64
2022/04/15 09:49:10;;;;;;;13.95;9.00;;;;;;;14.62;56.22;102780.84;5042928;28;20040;-66
2022/04/15 09:51:43;;;;;;;13.60;9.63;;;;;;;14.65;55.56;102772.97;5042228;28;20032;-64
2022/04/15 09:54:23;;;;;;;12.15;8.90;;;;;;;15.56;55.26;102770.34;5042623;28;20025;-64
2022/04/15 09:56:49;;;;;;;11.65;5.78;;;;;;;16.63;49.88;102772.66;5024328;28;20024;-64
2022/04/15 09:59:15;;;;;;;12.50;8.38;;;;;;;17.41;49.93;102769.44;5043132;28;20045;-66
2022/04/15 10:01:45;;;;;;;12.25;8.30;;;;;;;18.46;46.33;102770.06;5039657;28;20017;-66
2022/04/15 10:04:12;;;;;;;12.57;8.02;;;;;;;20.45;45.66;102763.53;5042261;28;20028;-66
2022/04/15 10:06:39;;;;;;;13.13;7.78;;;;;;;21.68;40.08;102770.03;5042926;28;20025;-66
2022/04/15 10:09:06;;;;;;;12.48;7.80;;;;;;;20.99;41.44;102775.13;5042579;28;20021;-66
2022/04/15 10:11:34;;;;;;;11.43;7.43;;;;;;;20.77;41.21;102771.38;5041823;28;20123;-65
2022/04/15 10:14:00;;;;;;;10.95;7.90;;;;;;;20.48;43.00;102768.66;5041578;28;20839;-66
2022/04/15 10:16:26;;;;;;;11.73;7.88;;;;;;;20.98;42.52;102773.41;5042594;28;20025;-66
2022/04/15 10:18:52;;;;;;;10.05;7.30;;;;;;;20.64;41.82;102767.81;5041717;28;20268;-66
2022/04/15 10:21:18;;;;;;;11.00;7.47;;;;;;;20.79;40.02;102767.25;5040756;28;20018;-66
2022/04/15 10:23:43;;;;;;;10.98;7.35;;;;;;;19.62;42.37;102771.31;5041309;28;20074;-66
2022/04/15 10:26:09;;;;;;;12.77;8.93;;;;;;;19.17;43.71;102766.34;5042281;28;20025;-66
2022/04/15 10:28:39;;;;;;;12.65;7.53;;;;;;;20.41;39.87;102765.13;5043563;28;20029;-66
2022/04/15 10:31:13;;;;;;;12.20;8.70;;;;;;;20.20;41.29;102773.09;5042682;28;20033;-66
2022/04/15 10:33:39;;;;;;;12.23;8.90;;;;;;;19.29;42.00;102773.84;5041937;28;20037;-66
2022/04/15 10:36:22;;;;;;;11.30;8.82;;;;;;;18.50;45.37;102774.06;5042645;28;20025;-66
2022/04/15 10:39:06;;;;;;;12.70;8.25;;;;;;;17.49;47.34;102774.69;5041806;28;20082;-66
2022/04/15 10:41:40;;;;;;;12.32;8.63;;;;;;;17.33;47.47;102770.56;5041654;28;20079;-65
2022/04/15 10:44:06;;;;;;;10.15;7.80;;;;;;;18.50;45.47;102759.28;5042822;28;20032;-66
2022/04/15 10:46:36;;;;;;;11.25;8.50;;;;;;;19.81;43.40;102762.78;5042464;28;20029;-66
2022/04/15 10:49:18;;;;;;;15.73;8.88;;;;;;;20.69;40.99;102753.13;5042501;28;20542;-66
2022/04/15 10:51:43;;;;;;;7.68;4.43;;;;;;;21.11;39.51;102750.72;5041279;28;20105;-66
2022/04/15 10:54:30;;;;;;;10.20;7.40;;;;;;;20.54;38.99;102755.63;5042061;28;20104;-66
2022/04/15 10:57:02;;;;;;;12.17;7.93;;;;;;;20.86;40.04;102758.69;5042016;28;20029;-66
2022/04/15 11:02:20;;;;;;;11.23;8.38;;;;;;;19.99;39.72;102759.84;5021425;28;20067;-66
2022/04/15 11:04:49;;;;;;;11.88;8.10;;;;;;;21.42;37.81;102754.03;5022592;28;20056;-66
2022/04/15 11:07:26;;;;;;;15.30;8.52;;;;;;;21.20;39.39;102762.34;5040115;28;20133;-66
2022/04/15 11:09:52;;;;;;;12.73;8.13;;;;;;;20.72;38.34;102753.44;5040034;28;20051;-65
2022/04/15 11:12:48;;;;;;;12.70;8.60;;;;;;;20.79;41.11;102753.28;5041136;28;20127;-65
2022/04/15 11:15:15;;;;;;;10.50;8.00;;;;;;;20.36;38.58;102751.06;5039674;28;20126;-65
2022/04/15 11:17:52;;;;;;;12.70;8.20;;;;;;;18.98;41.14;102761.13;5040565;28;20115;-65